Time;durP1;ratioP1;P1;durP2;ratioP2;P2;SDS_P1;SDS_P2;PMS_P1;PMS_P2;Temp;Humidity;BMP_temperature;BMP_pressure;BME280_temperature;BME280_humidity;BME280_pressure;Samples;Min_cycle;Max_cycle;Signal;HPM_P1;HPM_P2
2023/07/15 00:00:03;;;;;;;;;;;;;;;-145.06;0.00;60892.56;5867868;23;20210;-94
2023/07/15 00:02:43;;;;;;;;;;;;;;;-145.06;0.00;60892.56;5867676;23;19905;-94
2023/07/15 00:05:27;;;;;;;;;;;;;;;-145.06;0.00;60892.56;5867562;23;19913;-94
2023/07/15 00:08:06;;;;;;;;;;;;;;;-145.06;0.00;60892.56;5868465;23;19909;-94
2023/07/15 00:10:46;;;;;;;;;;;;;;;-145.06;0.00;60892.56;5867330;23;19909;-94
2023/07/15 00:13:25;;;;;;;;;;;;;;;-145.06;0.00;60892.56;5867532;23;19906;-93
2023/07/15 00:16:04;;;;;;;;;;;;;;;-145.06;0.00;60892.56;5867655;23;19987;-93
2023/07/15 00:18:43;;;;;;;;;;;;;;;-145.06;0.00;60892.56;5867465;23;19929;-94
2023/07/15 00:21:23;;;;;;;;;;;;;;;-145.06;0.00;60892.56;5866745;23;19972;-94
2023/07/15 00:24:02;;;;;;;;;;;;;;;-145.06;0.00;60892.56;5867254;23;19905;-94
2023/07/15 00:26:41;;;;;;;;;;;;;;;-145.06;0.00;60892.56;5867532;23;19996;-93
2023/07/15 00:29:20;;;;;;;;;;;;;;;-145.06;0.00;60892.56;5867313;23;19905;-95
2023/07/15 00:32:04;;;;;;;;;;;;;;;-145.06;0.00;60892.56;5868201;23;19988;-94
2023/07/15 00:34:43;;;;;;;;;;;;;;;-145.06;0.00;60892.56;5867990;23;19936;-93
2023/07/15 00:37:22;;;;;;;;;;;;;;;-145.06;0.00;60892.56;5867288;23;19909;-94
2023/07/15 00:40:03;;;;;;;;;;;;;;;-145.06;0.00;60892.56;5866803;23;19913;-94
2023/07/15 00:43:02;;;;;;;;;;;;;;;-145.06;0.00;60892.56;5868408;23;19905;-94
2023/07/15 00:45:41;;;;;;;;;;;;;;;-145.06;0.00;60892.56;5867282;23;20213;-93
2023/07/15 00:48:27;;;;;;;;;;;;;;;-145.06;0.00;60892.56;5866885;23;19953;-94
2023/07/15 00:51:05;;;;;;;;;;;;;;;-145.06;0.00;60892.56;5866966;23;19905;-94
2023/07/15 00:53:45;;;;;;;;;;;;;;;-145.06;0.00;60892.56;5866671;23;20391;-93
2023/07/15 00:56:25;;;;;;;;;;;;;;;-145.06;0.00;60892.56;5866896;23;19944;-94
2023/07/15 00:59:06;;;;;;;;;;;;;;;-145.06;0.00;60892.56;5866994;23;19909;-94
2023/07/15 01:01:46;;;;;;;;;;;;;;;-145.06;0.00;60892.56;5865610;23;19905;-94
2023/07/15 01:04:25;;;;;;;;;;;;;;;-145.06;0.00;60892.56;5867568;23;19909;-94
2023/07/15 01:07:07;;;;;;;;;;;;;;;-145.06;0.00;60892.56;5865910;23;19909;-92
2023/07/15 01:09:47;;;;;;;;;;;;;;;-145.06;0.00;60892.56;5866886;23;19905;-94
2023/07/15 01:12:26;;;;;;;;;;;;;;;-145.06;0.00;60892.56;5866625;23;19906;-94
2023/07/15 01:15:06;;;;;;;;;;;;;;;-145.06;0.00;60892.56;5866586;23;19909;-93
2023/07/15 01:17:45;;;;;;;;;;;;;;;-145.06;0.00;60892.56;5867238;23;19905;-93
2023/07/15 01:20:25;;;;;;;;;;;;;;;-145.06;0.00;60892.56;5866155;23;20229;-94
2023/07/15 01:23:04;;;;;;;;;;;;;;;-145.06;0.00;60892.56;5867031;23;19909;-93
2023/07/15 01:25:43;;;;;;;;;;;;;;;-145.06;0.00;60892.56;5866395;23;19945;-94
2023/07/15 01:28:22;;;;;;;;;;;;;;;-145.06;0.00;60892.56;5865949;23;19905;-94
2023/07/15 01:31:02;;;;;;;;;;;;;;;-145.06;0.00;60892.56;5865894;23;19909;-93
2023/07/15 01:33:40;;;;;;;;;;;;;;;-145.06;0.00;60892.56;5866597;23;19933;-94
2023/07/15 01:36:19;;;;;;;;;;;;;;;-145.06;0.00;60892.56;5866139;23;19905;-92
2023/07/15 01:38:58;;;;;;;;;;;;;;;-145.06;0.00;60892.56;5866728;23;20271;-94
2023/07/15 01:41:37;;;;;;;;;;;;;;;-145.06;0.00;60892.56;5865445;23;19905;-93
2023/07/15 01:44:17;;;;;;;;;;;;;;;-145.06;0.00;60892.56;5866193;23;20221;-93
2023/07/15 01:46:56;;;;;;;;;;;;;;;-145.06;0.00;60892.56;5866426;23;19909;-93
2023/07/15 01:49:35;;;;;;;;;;;;;;;-145.06;0.00;60892.56;5866179;23;19906;-93
2023/07/15 01:52:14;;;;;;;;;;;;;;;-145.06;0.00;60892.56;5866374;23;19909;-93
2023/07/15 01:54:53;;;;;;;;;;;;;;;24.37;0.00;60892.56;5865146;23;20016;-95
2023/07/15 01:57:32;;;;;;;;;;;;;;;24.34;0.00;60892.56;5866027;23;19909;-93
2023/07/15 02:00:16;;;;;;;;;;;;;;;-145.06;0.00;60892.56;5865593;23;19976;-93
2023/07/15 02:02:55;;;;;;;;;;;;;;;-145.06;0.00;60892.56;5865804;23;19909;-94
2023/07/15 02:05:34;;;;;;;;;;;;;;;-145.06;0.00;60892.56;5866446;23;19909;-93
2023/07/15 02:08:13;;;;;;;;;;;;;;;-145.06;0.00;60892.56;5865681;23;19909;-95
2023/07/15 02:10:52;;;;;;;;;;;;;;;-145.06;0.00;60892.56;5865334;23;20325;-92
2023/07/15 02:13:31;;;;;;;;;;;;;;;-145.06;0.00;60892.56;5866373;23;19909;-94
2023/07/15 02:16:10;;;;;;;;;;;;;;;-145.06;0.00;60892.56;5896558;23;20321;-94
2023/07/15 02:18:49;;;;;;;;;;;;;;;-145.06;0.00;60892.56;5866658;23;19913;-92
2023/07/15 02:21:28;;;;;;;;;;;;;;;-145.06;0.00;60892.56;5884862;23;19897;-93
2023/07/15 02:24:07;;;;;;;;;;;;;;;-145.06;0.00;60892.56;5889659;23;19917;-93
2023/07/15 02:26:46;;;;;;;;;;;;;;;-145.06;0.00;60892.56;5868107;23;19909;-93
2023/07/15 02:29:25;;;;;;;;;;;;;;;-145.06;0.00;60892.56;5866477;23;20293;-93
2023/07/15 02:32:04;;;;;;;;;;;;;;;-145.06;0.00;60892.56;5866100;23;20325;-93
2023/07/15 02:34:43;;;;;;;;;;;;;;;-145.06;0.00;60892.56;5866235;23;19929;-92
2023/07/15 02:37:22;;;;;;;;;;;;;;;-145.06;0.00;60892.56;5865527;23;19905;-93
2023/07/15 02:40:03;;;;;;;;;;;;;;;-145.06;0.00;60892.56;5864833;23;19905;-92
2023/07/15 02:42:42;;;;;;;;;;;;;;;-145.06;0.00;60892.56;5866279;23;19980;-93
2023/07/15 02:45:21;;;;;;;;;;;;;;;-145.06;0.00;60892.56;5865006;23;19909;-94
2023/07/15 02:48:00;;;;;;;;;;;;;;;-145.06;0.00;60892.56;5865203;23;19905;-95
2023/07/15 02:50:40;;;;;;;;;;;;;;;-145.06;0.00;60892.56;5865533;23;19909;-94
2023/07/15 02:53:19;;;;;;;;;;;;;;;-145.06;0.00;60892.56;5865709;23;19909;-93
2023/07/15 02:55:58;;;;;;;;;;;;;;;-145.06;0.00;60892.56;5864846;23;20325;-94
2023/07/15 02:58:37;;;;;;;;;;;;;;;-145.06;0.00;60892.56;5896766;23;19909;-94
2023/07/15 03:01:16;;;;;;;;;;;;;;;-145.06;0.00;60892.56;5864823;23;19910;-93
2023/07/15 03:03:54;;;;;;;;;;;;;;;-145.06;0.00;60892.56;5865003;23;19935;-94
2023/07/15 03:06:33;;;;;;;;;;;;;;;-145.06;0.00;60892.56;5864765;23;19913;-93
2023/07/15 03:09:12;;;;;;;;;;;;;;;-145.06;0.00;60892.56;5865365;23;19905;-93
2023/07/15 03:11:52;;;;;;;;;;;;;;;-145.06;0.00;60892.56;5865236;23;19905;-92
2023/07/15 03:14:30;;;;;;;;;;;;;;;-145.06;0.00;60892.56;5865802;23;19906;-93
2023/07/15 03:17:10;;;;;;;;;;;;;;;-145.06;0.00;60892.56;5865165;23;19905;-93
2023/07/15 03:19:49;;;;;;;;;;;;;;;-145.06;0.00;60892.56;5865475;23;20325;-93
2023/07/15 03:22:29;;;;;;;;;;;;;;;-145.06;0.00;60892.56;5865467;23;19913;-93
2023/07/15 03:25:09;;;;;;;;;;;;;;;23.64;0.00;60892.56;5865313;23;19928;-93
2023/07/15 03:27:49;;;;;;;;;;;;;;;23.59;0.00;60892.56;5865153;23;19909;-93
2023/07/15 03:30:28;;;;;;;;;;;;;;;-145.06;0.00;60892.56;5864942;23;19909;-93
2023/07/15 03:33:07;;;;;;;;;;;;;;;-145.06;0.00;60892.56;5865670;23;19936;-93
2023/07/15 03:35:46;;;;;;;;;;;;;;;23.54;0.00;60892.56;5864857;23;19909;-93
2023/07/15 03:38:25;;;;;;;;;;;;;;;23.49;0.00;60892.56;5865208;23;19909;-93
2023/07/15 03:41:04;;;;;;;;;;;;;;;-145.06;0.00;60892.56;5864954;23;19905;-93
2023/07/15 03:43:43;;;;;;;;;;;;;;;-145.06;0.00;60892.56;5864576;23;20313;-92
2023/07/15 03:46:23;;;;;;;;;;;;;;;-145.06;0.00;60892.56;5866550;23;19909;-94
2023/07/15 03:49:02;;;;;;;;;;;;;;;23.44;0.00;60892.56;5866778;23;19909;-92
2023/07/15 03:51:41;;;;;;;;;;;;;;;-145.06;0.00;60892.56;5865773;23;19980;-93
2023/07/15 03:54:20;;;;;;;;;;;;;;;-145.06;0.00;60892.56;5866714;23;20324;-93
2023/07/15 03:56:59;;;;;;;;;;;;;;;-145.06;0.00;60892.56;5866932;23;19909;-93
2023/07/15 03:59:38;;;;;;;;;;;;;;;-145.06;0.00;60892.56;5866777;23;20213;-93
2023/07/15 04:02:17;;;;;;;;;;;;;;;-145.06;0.00;60892.56;5866846;23;19905;-93
2023/07/15 04:04:56;;;;;;;;;;;;;;;-145.06;0.00;60892.56;5866283;23;20229;-94
2023/07/15 04:07:35;;;;;;;;;;;;;;;23.27;0.00;60892.56;5867102;23;19909;-93
2023/07/15 04:10:14;;;;;;;;;;;;;;;23.20;0.00;60892.56;5866490;23;19905;-93
2023/07/15 04:12:53;;;;;;;;;;;;;;;-145.06;0.00;60892.56;5866168;23;19905;-93
2023/07/15 04:15:34;;;;;;;;;;;;;;;-145.06;0.00;60892.56;5867369;23;19905;-93
2023/07/15 04:18:13;;;;;;;;;;;;;;;-145.06;0.00;60892.56;5866624;23;19905;-93
2023/07/15 04:20:52;;;;;;;;;;;;;;;-145.06;0.00;60892.56;5866452;23;19905;-93
2023/07/15 04:23:31;;;;;;;;;;;;;;;-145.06;0.00;60892.56;5866796;23;19909;-94
2023/07/15 04:26:11;;;;;;;;;;;;;;;-145.06;0.00;60892.56;5865231;23;19909;-94
2023/07/15 04:28:52;;;;;;;;;;;;;;;-145.06;0.00;60892.56;5866496;23;19909;-93
2023/07/15 04:31:31;;;;;;;;;;;;;;;-145.06;0.00;60892.56;5866614;23;20210;-94
2023/07/15 04:34:10;;;;;;;;;;;;;;;-145.06;0.00;60892.56;5866481;23;19905;-93
2023/07/15 04:36:49;;;;;;;;;;;;;;;-145.06;0.00;60892.56;5866270;23;19909;-92
2023/07/15 04:39:28;;;;;;;;;;;;;;;-145.06;0.00;60892.56;5865788;23;19909;-94
2023/07/15 04:42:07;;;;;;;;;;;;;;;-145.06;0.00;60892.56;5866048;23;19905;-93
2023/07/15 04:44:46;;;;;;;;;;;;;;;-145.06;0.00;60892.56;5867878;23;20317;-93
2023/07/15 04:47:25;;;;;;;;;;;;;;;-145.06;0.00;60892.56;5866522;23;19949;-93
2023/07/15 04:50:04;;;;;;;;;;;;;;;-145.06;0.00;60892.56;5867289;23;20214;-93
2023/07/15 04:52:43;;;;;;;;;;;;;;;-145.06;0.00;60892.56;5867312;23;20059;-92
2023/07/15 04:55:22;;;;;;;;;;;;;;;-145.06;0.00;60892.56;5867548;23;20281;-93
2023/07/15 04:58:01;;;;;;;;;;;;;;;-145.06;0.00;60892.56;5867491;23;19905;-93
2023/07/15 05:00:41;;;;;;;;;;;;;;;-145.06;0.00;60892.56;5867462;23;20210;-93
2023/07/15 05:03:20;;;;;;;;;;;;;;;-145.06;0.00;60892.56;5867920;23;19905;-93
2023/07/15 05:06:00;;;;;;;;;;;;;;;-145.06;0.00;60892.56;5867652;23;19936;-93
2023/07/15 05:08:39;;;;;;;;;;;;;;;-145.06;0.00;60892.56;5867760;23;19905;-93
2023/07/15 05:11:19;;;;;;;;;;;;;;;-145.06;0.00;60892.56;5867333;23;19913;-93
2023/07/15 05:13:58;;;;;;;;;;;;;;;-145.06;0.00;60892.56;5867320;23;19909;-94
2023/07/15 05:16:37;;;;;;;;;;;;;;;-145.06;0.00;60892.56;5867275;23;19905;-93
2023/07/15 05:19:16;;;;;;;;;;;;;;;-145.06;0.00;60892.56;5866955;23;19909;-93
2023/07/15 05:21:55;;;;;;;;;;;;;;;-145.06;0.00;60892.56;5869020;23;19909;-92
2023/07/15 05:24:37;;;;;;;;;;;;;;;-145.06;0.00;60892.56;5868445;23;20316;-92
2023/07/15 05:27:16;;;;;;;;;;;;;;;-145.06;0.00;60892.56;5868239;23;19913;-93
2023/07/15 05:29:55;;;;;;;;;;;;;;;-145.06;0.00;60892.56;5867877;23;19909;-93
2023/07/15 05:32:34;;;;;;;;;;;;;;;-145.06;0.00;60892.56;5868685;23;19909;-93
2023/07/15 05:35:13;;;;;;;;;;;;;;;-145.06;0.00;60892.56;5868074;23;19909;-92
2023/07/15 05:37:52;;;;;;;;;;;;;;;-145.06;0.00;60892.56;5867304;23;20218;-93
2023/07/15 05:40:31;;;;;;;;;;;;;;;-145.06;0.00;60892.56;5868348;23;19906;-93
2023/07/15 05:43:10;;;;;;;;;;;;;;;-145.06;0.00;60892.56;5882647;23;19921;-94
2023/07/15 05:45:49;;;;;;;;;;;;;;;-145.06;0.00;60892.56;5885272;23;19905;-93
2023/07/15 05:48:23;;;;;;;;;;;;;;;-145.06;0.00;60892.56;5901803;23;20259;-92
2023/07/15 05:51:02;;;;;;;;;;;;;;;-145.06;0.00;60892.56;5895671;23;19905;-91
2023/07/15 05:53:45;;;;;;;;;;;;;;;-145.06;0.00;60892.56;5872609;23;19905;-91
2023/07/15 05:56:24;;;;;;;;;;;;;;;-145.06;0.00;60892.56;5875841;23;19905;-92
2023/07/15 05:59:03;;;;;;;;;;;;;;;-145.06;0.00;60892.56;5875263;23;19909;-91
2023/07/15 06:01:42;;;;;;;;;;;;;;;-145.06;0.00;60892.56;5870601;23;19905;-92
2023/07/15 06:04:21;;;;;;;;;;;;;;;-145.06;0.00;60892.56;5871280;23;20225;-94
2023/07/15 06:07:00;;;;;;;;;;;;;;;-145.06;0.00;60892.56;5866751;23;19913;-94
2023/07/15 06:09:39;;;;;;;;;;;;;;;-145.06;0.00;60892.56;5867693;23;19905;-94
2023/07/15 06:12:18;;;;;;;;;;;;;;;-145.06;0.00;60892.56;5866683;23;19909;-92
2023/07/15 06:14:57;;;;;;;;;;;;;;;-145.06;0.00;60892.56;5866383;23;19905;-93
2023/07/15 06:17:36;;;;;;;;;;;;;;;-145.06;0.00;60892.56;5866856;23;19905;-93
2023/07/15 06:20:14;;;;;;;;;;;;;;;-145.06;0.00;60892.56;5866486;23;19980;-94
2023/07/15 06:22:53;;;;;;;;;;;;;;;-145.06;0.00;60892.56;5866285;23;19909;-93
2023/07/15 06:25:32;;;;;;;;;;;;;;;-145.06;0.00;60892.56;5865244;23;19913;-93
2023/07/15 06:28:11;;;;;;;;;;;;;;;-145.06;0.00;60892.56;5867022;23;20316;-92
2023/07/15 06:30:59;;;;;;;;;;;;;;;-145.06;0.00;60892.56;5866652;23;19905;-91
2023/07/15 06:33:39;;;;;;;;;;;;;;;-145.06;0.00;60892.56;5868294;23;19905;-93
2023/07/15 06:36:18;;;;;;;;;;;;;;;-145.06;0.00;60892.56;5866231;23;19905;-92
2023/07/15 06:38:57;;;;;;;;;;;;;;;-145.06;0.00;60892.56;5868440;23;20321;-93
2023/07/15 06:41:36;;;;;;;;;;;;;;;-145.06;0.00;60892.56;5866407;23;19905;-93
2023/07/15 06:44:15;;;;;;;;;;;;;;;-145.06;0.00;60892.56;5866904;23;19905;-93
2023/07/15 06:46:54;;;;;;;;;;;;;;;-145.06;0.00;60892.56;5868365;23;19937;-93
2023/07/15 06:49:33;;;;;;;;;;;;;;;-145.06;0.00;60892.56;5868223;23;19909;-93
2023/07/15 06:52:12;;;;;;;;;;;;;;;-145.06;0.00;60892.56;5871463;23;20214;-92
2023/07/15 06:54:54;;;;;;;;;;;;;;;-145.06;0.00;60892.56;5875247;23;19905;-92
2023/07/15 06:57:33;;;;;;;;;;;;;;;-145.06;0.00;60892.56;5875373;23;19905;-92
2023/07/15 07:00:13;;;;;;;;;;;;;;;-145.06;0.00;60892.56;5873437;23;19909;-93
2023/07/15 07:02:52;;;;;;;;;;;;;;;-145.06;0.00;60892.56;5872746;23;19905;-94
2023/07/15 07:05:30;;;;;;;;;;;;;;;-145.06;0.00;60892.56;5868143;23;19905;-93
2023/07/15 07:08:09;;;;;;;;;;;;;;;-145.06;0.00;60892.56;5868191;23;19910;-93
2023/07/15 07:10:52;;;;;;;;;;;;;;;-145.06;0.00;60892.56;5868632;23;19905;-92
2023/07/15 07:13:31;;;;;;;;;;;;;;;-145.06;0.00;60892.56;5869405;23;19905;-94
2023/07/15 07:16:10;;;;;;;;;;;;;;;-145.06;0.00;60892.56;5870661;23;19909;-93
2023/07/15 07:18:49;;;;;;;;;;;;;;;-145.06;0.00;60892.56;5889356;23;20276;-92
2023/07/15 07:21:27;;;;;;;;;;;;;;;-145.06;0.00;60892.56;5867531;23;20321;-93
2023/07/15 07:24:07;;;;;;;;;;;;;;;-145.06;0.00;60892.56;5868990;23;19925;-93
2023/07/15 07:26:47;;;;;;;;;;;;;;;-145.06;0.00;60892.56;5867722;23;19913;-93
2023/07/15 07:29:27;;;;;;;;;;;;;;;-145.06;0.00;60892.56;5868386;23;19909;-93
2023/07/15 07:32:06;;;;;;;;;;;;;;;-145.06;0.00;60892.56;5868926;23;19905;-92
2023/07/15 07:35:02;;;;;;;;;;;;;;;-145.06;0.00;60892.56;5871826;23;19924;-93
2023/07/15 07:38:33;;;;;;;;;;;;;;;-145.06;0.00;60892.56;5871491;23;19905;-94
2023/07/15 07:40:53;;;;;;;;;;;;;;;-145.06;0.00;60892.56;5889542;23;19914;-93
2023/07/15 07:43:40;;;;;;;;;;;;;;;-145.06;0.00;60892.56;5867654;23;19906;-95
2023/07/15 07:46:19;;;;;;;;;;;;;;;-145.06;0.00;60892.56;5867425;23;20281;-94
2023/07/15 07:49:00;;;;;;;;;;;;;;;-145.06;0.00;60892.56;5867105;23;19913;-92
2023/07/15 07:51:40;;;;;;;;;;;;;;;-145.06;0.00;60892.56;5866941;23;19905;-94
2023/07/15 07:54:29;;;;;;;;;;;;;;;-145.06;0.00;60892.56;5867179;23;19905;-94
2023/07/15 07:57:18;;;;;;;;;;;;;;;;;;;;;
2023/07/15 07:59:57;;;;;;;;;;;;;;;-145.06;0.00;60892.56;5899610;23;19905;-94
2023/07/15 08:02:36;;;;;;;;;;;;;;;-145.06;0.00;60892.56;5866856;23;20340;-93
2023/07/15 08:05:15;;;;;;;;;;;;;;;-145.06;0.00;60892.56;5865506;23;19905;-93
2023/07/15 08:07:54;;;;;;;;;;;;;;;-145.06;0.00;60892.56;5865811;23;19913;-94
2023/07/15 08:10:33;;;;;;;;;;;;;;;-145.06;0.00;60892.56;5864924;23;19909;-93
2023/07/15 08:13:12;;;;;;;;;;;;;;;-145.06;0.00;60892.56;5865840;23;19905;-93
2023/07/15 08:15:51;;;;;;;;;;;;;;;-145.06;0.00;60892.56;5865356;23;19905;-93
2023/07/15 08:18:30;;;;;;;;;;;;;;;-145.06;0.00;60892.56;5862100;23;19921;-90
2023/07/15 08:21:09;;;;;;;;;;;;;;;-145.06;0.00;60892.56;5861527;23;19905;-91
2023/07/15 08:23:48;;;;;;;;;;;;;;;-145.06;0.00;60892.56;5861749;23;19905;-92
2023/07/15 08:26:27;;;;;;;;;;;;;;;-145.06;0.00;60892.56;5886241;23;19909;-93
2023/07/15 08:29:06;;;;;;;;;;;;;;;-145.06;0.00;60892.56;5866826;23;19913;-92
2023/07/15 08:31:46;;;;;;;;;;;;;;;-145.06;0.00;60892.56;5865822;23;20264;-92
2023/07/15 08:34:25;;;;;;;;;;;;;;;-145.06;0.00;60892.56;5866794;23;19905;-92
2023/07/15 08:37:05;;;;;;;;;;;;;;;-145.06;0.00;60892.56;5869360;23;19933;-91
2023/07/15 08:39:44;;;;;;;;;;;;;;;24.91;0.00;60892.56;5875318;23;19905;-93
2023/07/15 08:42:23;;;;;;;;;;;;;;;-145.06;0.00;60892.56;5873196;23;19909;-93
2023/07/15 08:45:02;;;;;;;;;;;;;;;-145.06;0.00;60892.56;5867532;23;19906;-92
2023/07/15 08:47:44;;;;;;;;;;;;;;;24.45;0.00;60892.56;5867487;23;19936;-92
2023/07/15 08:50:24;;;;;;;;;;;;;;;-145.06;0.00;60892.56;5883948;23;19921;-91
2023/07/15 08:53:03;;;;;;;;;;;;;;;-145.06;0.00;60892.56;5866012;23;19932;-91
2023/07/15 08:55:42;;;;;;;;;;;;;;;-145.06;0.00;60892.56;5863493;23;19909;-89
2023/07/15 08:58:21;;;;;;;;;;;;;;;-145.06;0.00;60892.56;5862695;23;20341;-90
2023/07/15 09:01:00;;;;;;;;;;;;;;;-145.06;0.00;60892.56;5863172;23;19924;-92
2023/07/15 09:03:39;;;;;;;;;;;;;;;-145.06;0.00;60892.56;5878042;23;19913;-93
2023/07/15 09:06:19;;;;;;;;;;;;;;;-145.06;0.00;60892.56;5888237;23;19913;-93
2023/07/15 09:08:57;;;;;;;;;;;;;;;-145.06;0.00;60892.56;5874603;23;19976;-92
2023/07/15 09:11:41;;;;;;;;;;;;;;;-145.06;0.00;60892.56;5866668;23;20293;-93
2023/07/15 09:14:20;;;;;;;;;;;;;;;-145.06;0.00;60892.56;5866178;23;19909;-93
2023/07/15 09:16:59;;;;;;;;;;;;;;;-145.06;0.00;60892.56;5864668;23;19905;-94
2023/07/15 09:19:38;;;;;;;;;;;;;;;-145.06;0.00;60892.56;5866224;23;19905;-92
2023/07/15 09:22:18;;;;;;;;;;;;;;;-145.06;0.00;60892.56;5897517;23;19909;-92
2023/07/15 09:25:02;;;;;;;;;;;;;;;-145.06;0.00;60892.56;5863718;23;19909;-92
2023/07/15 09:27:42;;;;;;;;;;;;;;;-145.06;0.00;60892.56;5882533;23;19909;-91
2023/07/15 09:30:21;;;;;;;;;;;;;;;-145.06;0.00;60892.56;5861606;23;19948;-90
2023/07/15 09:33:00;;;;;;;;;;;;;;;-145.06;0.00;60892.56;5859941;23;19981;-92
2023/07/15 09:35:41;;;;;;;;;;;;;;;-145.06;0.00;60892.56;5857974;23;19909;-90
2023/07/15 09:38:20;;;;;;;;;;;;;;;-145.06;0.00;60892.56;5859148;23;19909;-90
2023/07/15 09:40:59;;;;;;;;;;;;;;;-145.06;0.00;60892.56;5857650;23;19937;-90
2023/07/15 09:43:45;;;;;;;;;;;;;;;-145.06;0.00;60892.56;5859454;23;20329;-90
2023/07/15 09:46:27;;;;;;;;;;;;;;;-145.06;0.00;60892.56;5858373;23;19983;-90
2023/07/15 09:49:06;;;;;;;;;;;;;;;-145.06;0.00;60892.56;5858106;23;19925;-90
2023/07/15 09:51:45;;;;;;;;;;;;;;;-145.06;0.00;60892.56;5856118;23;20247;-88
2023/07/15 09:54:28;;;;;;;;;;;;;;;-145.06;0.00;60892.56;5889717;23;19909;-90
2023/07/15 09:57:14;;;;;;;;;;;;;;;-145.06;0.00;60892.56;5858411;23;19909;-90
2023/07/15 09:59:54;;;;;;;;;;;;;;;-145.06;0.00;60892.56;5889991;23;20123;-91
2023/07/15 10:02:33;;;;;;;;;;;;;;;-145.06;0.00;60892.56;5857958;23;19944;-90
2023/07/15 10:05:15;;;;;;;;;;;;;;;-145.06;0.00;60892.56;5860366;23;19905;-91
2023/07/15 10:07:55;;;;;;;;;;;;;;;-145.06;0.00;60892.56;5860551;23;19913;-90
2023/07/15 10:10:34;;;;;;;;;;;;;;;-145.06;0.00;60892.56;5857646;23;19906;-90
2023/07/15 10:13:14;;;;;;;;;;;;;;;-145.06;0.00;60892.56;5859411;23;19913;-90
2023/07/15 10:15:53;;;;;;;;;;;;;;;-145.06;0.00;60892.56;5859610;23;19909;-89
2023/07/15 10:18:32;;;;;;;;;;;;;;;-145.06;0.00;60892.56;5858707;23;19909;-90
2023/07/15 10:21:14;;;;;;;;;;;;;;;-145.06;0.00;60892.56;5855998;23;19909;-90
2023/07/15 10:24:07;;;;;;;;;;;;;;;-145.06;0.00;60892.56;5890986;23;19909;-89
2023/07/15 10:26:48;;;;;;;;;;;;;;;-145.06;0.00;60892.56;5857231;23;19913;-90
2023/07/15 10:29:30;;;;;;;;;;;;;;;-145.06;0.00;60892.56;5859379;23;19936;-91
2023/07/15 10:32:11;;;;;;;;;;;;;;;-145.06;0.00;60892.56;5861551;23;20336;-91
2023/07/15 10:34:50;;;;;;;;;;;;;;;-145.06;0.00;60892.56;5859667;23;20325;-90
2023/07/15 10:37:33;;;;;;;;;;;;;;;-145.06;0.00;60892.56;5858541;23;19941;-91
2023/07/15 10:40:32;;;;;;;;;;;;;;;-145.06;0.00;60892.56;5858486;23;19909;-90
2023/07/15 10:43:10;;;;;;;;;;;;;;;-145.06;0.00;60892.56;5858946;23;19933;-91
2023/07/15 10:45:53;;;;;;;;;;;;;;;-145.06;0.00;60892.56;5859373;23;19913;-91
2023/07/15 10:48:32;;;;;;;;;;;;;;;-145.06;0.00;60892.56;5859936;23;20379;-91
2023/07/15 10:51:12;;;;;;;;;;;;;;;-145.06;0.00;60892.56;5858394;23;19952;-91
2023/07/15 10:53:50;;;;;;;;;;;;;;;-145.06;0.00;60892.56;5859688;23;19929;-91
2023/07/15 10:56:30;;;;;;;;;;;;;;;-145.06;0.00;60892.56;5880066;23;19905;-91
2023/07/15 10:59:09;;;;;;;;;;;;;;;-145.06;0.00;60892.56;5860572;23;19905;-90
2023/07/15 11:01:48;;;;;;;;;;;;;;;-145.06;0.00;60892.56;5859817;23;19948;-91
2023/07/15 11:04:27;;;;;;;;;;;;;;;-145.06;0.00;60892.56;5860231;23;20317;-91
2023/07/15 11:07:07;;;;;;;;;;;;;;;-145.06;0.00;60892.56;5891265;23;20312;-91
2023/07/15 11:09:46;;;;;;;;;;;;;;;-145.06;0.00;60892.56;5859823;23;20372;-90
2023/07/15 11:12:25;;;;;;;;;;;;;;;-145.06;0.00;60892.56;5860160;23;19909;-91
2023/07/15 11:15:04;;;;;;;;;;;;;;;-145.06;0.00;60892.56;5858859;23;19909;-91
2023/07/15 11:17:43;;;;;;;;;;;;;;;-145.06;0.00;60892.56;5859108;23;19913;-89
2023/07/15 11:20:22;;;;;;;;;;;;;;;-145.06;0.00;60892.56;5857450;23;19909;-91
2023/07/15 11:23:01;;;;;;;;;;;;;;;-145.06;0.00;60892.56;5860089;23;19909;-91
2023/07/15 11:25:40;;;;;;;;;;;;;;;-145.06;0.00;60892.56;5858776;23;19909;-89
2023/07/15 11:28:19;;;;;;;;;;;;;;;-145.06;0.00;60892.56;5859397;23;19909;-90
2023/07/15 11:30:58;;;;;;;;;;;;;;;-145.06;0.00;60892.56;5858653;23;19905;-90
2023/07/15 11:33:37;;;;;;;;;;;;;;;-145.06;0.00;60892.56;5866941;23;19905;-93
2023/07/15 11:36:16;;;;;;;;;;;;;;;-145.06;0.00;60892.56;5871038;23;19905;-92
2023/07/15 11:38:56;;;;;;;;;;;;;;;-145.06;0.00;60892.56;5870240;23;20234;-93
2023/07/15 11:41:42;;;;;;;;;;;;;;;-145.06;0.00;60892.56;5871383;23;19984;-93
2023/07/15 11:44:25;;;;;;;;;;;;;;;-145.06;0.00;60892.56;5873125;23;19906;-93
2023/07/15 11:47:04;;;;;;;;;;;;;;;-145.06;0.00;60892.56;5870530;23;19913;-92
2023/07/15 11:49:46;;;;;;;;;;;;;;;-145.06;0.00;60892.56;5872038;23;19909;-94
2023/07/15 11:52:47;;;;;;;;;;;;;;;-145.06;0.00;60892.56;5872859;23;19905;-94
2023/07/15 11:55:52;;;;;;;;;;;;;;;-145.06;0.00;60892.56;5875223;23;19909;-93
2023/07/15 12:05:06;;;;;;;;;;;;;;;24.36;0.00;60892.56;5767413;24;19950;-92
2023/07/15 12:12:04;;;;;;;;;;;;;;;24.37;0.00;60892.56;5905810;23;20376;-93
2023/07/15 12:18:45;;;;;;;;;;;;;;;-145.06;0.00;60892.56;5779640;23;19919;-94
2023/07/15 12:21:45;;;;;;;;;;;;;;;-145.06;0.00;60892.56;5836955;23;19913;-92
2023/07/15 12:24:34;;;;;;;;;;;;;;;24.35;0.00;60892.56;5905690;23;19909;-94
2023/07/15 12:51:15;;;;;;;;;;;;;;;-145.06;0.00;60892.56;5854728;23;19909;-91
2023/07/15 12:53:54;;;;;;;;;;;;;;;-145.06;0.00;60892.56;5862122;23;19909;-91
2023/07/15 12:56:33;;;;;;;;;;;;;;;-145.06;0.00;60892.56;5861908;23;19980;-91
2023/07/15 12:59:12;;;;;;;;;;;;;;;-145.06;0.00;60892.56;5863604;23;19949;-91
2023/07/15 13:01:54;;;;;;;;;;;;;;;-145.06;0.00;60892.56;5859076;23;19929;-90
2023/07/15 13:04:33;;;;;;;;;;;;;;;-145.06;0.00;60892.56;5856386;23;20162;-91
2023/07/15 13:07:12;;;;;;;;;;;;;;;-145.06;0.00;60892.56;5860515;23;19914;-92
2023/07/15 13:09:51;;;;;;;;;;;;;;;-145.06;0.00;60892.56;5860153;23;20230;-92
2023/07/15 13:12:30;;;;;;;;;;;;;;;-145.06;0.00;60892.56;5859765;23;20153;-91
2023/07/15 13:15:09;;;;;;;;;;;;;;;-145.06;0.00;60892.56;5858805;23;19909;-91
2023/07/15 13:17:49;;;;;;;;;;;;;;;-145.06;0.00;60892.56;5859033;23;20261;-92
2023/07/15 13:20:28;;;;;;;;;;;;;;;-145.06;0.00;60892.56;5858294;23;19910;-93
2023/07/15 13:23:07;;;;;;;;;;;;;;;-145.06;0.00;60892.56;5856238;23;19913;-92
2023/07/15 13:25:46;;;;;;;;;;;;;;;-145.06;0.00;60892.56;5854307;23;19913;-91
2023/07/15 13:28:25;;;;;;;;;;;;;;;-145.06;0.00;60892.56;5866067;23;19909;-93
2023/07/15 13:31:04;;;;;;;;;;;;;;;-145.06;0.00;60892.56;5858683;23;19906;-92
2023/07/15 13:33:43;;;;;;;;;;;;;;;-145.06;0.00;60892.56;5857869;23;19909;-93
2023/07/15 13:36:24;;;;;;;;;;;;;;;-145.06;0.00;60892.56;5861698;23;19906;-91
2023/07/15 13:39:03;;;;;;;;;;;;;;;-145.06;0.00;60892.56;5859418;23;19909;-90
2023/07/15 13:41:42;;;;;;;;;;;;;;;-145.06;0.00;60892.56;5852380;23;19905;-90
2023/07/15 13:44:21;;;;;;;;;;;;;;;-145.06;0.00;60892.56;5854207;23;19984;-90
2023/07/15 13:47:01;;;;;;;;;;;;;;;-145.06;0.00;60892.56;5862634;23;19949;-90
2023/07/15 13:49:40;;;;;;;;;;;;;;;25.99;0.00;60892.56;5850689;23;19910;-90
2023/07/15 13:52:18;;;;;;;;;;;;;;;-145.06;0.00;60892.56;5851203;23;19910;-90
2023/07/15 13:54:57;;;;;;;;;;;;;;;-145.06;0.00;60892.56;5850858;23;19913;-90
2023/07/15 13:57:36;;;;;;;;;;;;;;;-145.06;0.00;60892.56;5847788;23;20210;-91
2023/07/15 14:00:15;;;;;;;;;;;;;;;-145.06;0.00;60892.56;5849300;23;19909;-91
2023/07/15 14:02:54;;;;;;;;;;;;;;;-145.06;0.00;60892.56;5851235;23;19910;-91
2023/07/15 14:05:33;;;;;;;;;;;;;;;-145.06;0.00;60892.56;5849900;23;19910;-91
2023/07/15 14:08:12;;;;;;;;;;;;;;;-145.06;0.00;60892.56;5851937;23;20076;-90
2023/07/15 14:10:51;;;;;;;;;;;;;;;-145.06;0.00;60892.56;5850151;23;20426;-90
2023/07/15 14:13:30;;;;;;;;;;;;;;;-145.06;0.00;60892.56;5846198;23;19905;-91
2023/07/15 14:16:09;;;;;;;;;;;;;;;-145.06;0.00;60892.56;5854877;23;19909;-92
2023/07/15 14:18:48;;;;;;;;;;;;;;;-145.06;0.00;60892.56;5850626;23;19909;-91
2023/07/15 14:21:27;;;;;;;;;;;;;;;-145.06;0.00;60892.56;5841018;23;20016;-90